Time;durP1;ratioP1;P1;durP2;ratioP2;P2;SDS_P1;SDS_P2;PMS_P1;PMS_P2;Temp;Humidity;BMP_temperature;BMP_pressure;BME280_temperature;BME280_humidity;BME280_pressure;Samples;Min_cycle;Max_cycle;Signal;HPM_P1;HPM_P2
2022/04/11 00:02:11;;;;;;;7.10;1.77;;;3.40;99.90;;;;;;4900723;29;20469;-59
2022/04/11 00:04:40;;;;;;;5.97;1.90;;;3.50;99.90;;;;;;4896242;29;20527;-58
2022/04/11 00:07:09;;;;;;;6.07;1.80;;;3.60;99.90;;;;;;4898966;29;20473;-59
2022/04/11 00:09:37;;;;;;;8.97;3.13;;;3.50;99.90;;;;;;4877601;29;20488;-58
2022/04/11 00:12:06;;;;;;;6.63;1.70;;;3.40;99.90;;;;;;4895180;29;20469;-58
2022/04/11 00:14:34;;;;;;;6.73;1.60;;;3.30;99.90;;;;;;4902708;29;20489;-58
2022/04/11 00:17:03;;;;;;;6.63;1.80;;;3.30;99.90;;;;;;4894999;29;20486;-59
2022/04/11 00:19:32;;;;;;;5.37;1.50;;;3.30;99.90;;;;;;4894770;29;21040;-58
2022/04/11 00:22:00;;;;;;;3.67;1.60;;;3.40;99.90;;;;;;4903638;29;20481;-59
2022/04/11 00:24:29;;;;;;;3.30;1.30;;;3.30;99.90;;;;;;4896216;29;20472;-58
2022/04/11 00:26:57;;;;;;;8.40;1.60;;;3.20;99.90;;;;;;4893601;29;20461;-59
2022/04/11 00:29:25;;;;;;;7.27;1.50;;;3.30;99.90;;;;;;4898418;29;20487;-58
2022/04/11 00:31:53;;;;;;;3.17;1.77;;;3.50;99.90;;;;;;4904000;29;20837;-58
2022/04/11 00:34:24;;;;;;;5.27;1.73;;;3.50;99.90;;;;;;4898620;29;20566;-58
2022/04/11 00:36:52;;;;;;;2.90;1.50;;;3.30;99.90;;;;;;4898259;29;20467;-59
2022/04/11 00:39:20;;;;;;;5.23;2.00;;;3.20;99.90;;;;;;4898403;29;20476;-59
2022/04/11 00:41:50;;;;;;;4.87;1.53;;;3.30;99.90;;;;;;4899202;29;20578;-58
2022/04/11 00:44:19;;;;;;;3.03;1.50;;;3.20;99.90;;;;;;4908378;29;20480;-58
2022/04/11 00:46:47;;;;;;;4.73;1.50;;;3.30;99.90;;;;;;4896630;29;20483;-59
2022/04/11 00:49:15;;;;;;;4.17;1.80;;;3.40;99.90;;;;;;4896726;29;20473;-59
2022/04/11 00:51:45;;;;;;;7.03;1.80;;;3.30;99.90;;;;;;4902372;29;20539;-59
2022/04/11 00:54:14;;;;;;;4.30;1.73;;;3.20;99.90;;;;;;4898124;29;20884;-59
2022/04/11 00:56:42;;;;;;;3.27;1.67;;;3.50;99.90;;;;;;4896440;29;20482;-59
2022/04/11 00:59:13;;;;;;;5.97;1.60;;;3.40;99.90;;;;;;4897649;29;20514;-58
2022/04/11 01:01:41;;;;;;;4.97;1.60;;;3.40;99.90;;;;;;4896218;29;21019;-58
2022/04/11 01:04:23;;;;;;;5.13;1.90;;;3.50;99.90;;;;;;4898079;29;20563;-58
2022/04/11 01:06:51;;;;;;;3.87;1.67;;;3.40;99.90;;;;;;4897845;29;20484;-59
2022/04/11 01:09:19;;;;;;;4.40;1.60;;;3.30;99.90;;;;;;4898080;29;20487;-58
2022/04/11 01:11:48;;;;;;;2.33;1.47;;;3.10;99.90;;;;;;4896488;29;20480;-59
2022/04/11 01:14:18;;;;;;;5.60;1.30;;;3.00;99.90;;;;;;4905529;29;20841;-59
2022/04/11 01:16:49;;;;;;;6.47;1.63;;;2.90;99.90;;;;;;4902909;29;20469;-58
2022/04/11 01:19:18;;;;;;;5.57;2.30;;;2.90;99.90;;;;;;4897630;29;20472;-59
2022/04/11 01:21:48;;;;;;;5.50;1.47;;;2.90;99.90;;;;;;4904461;29;20844;-58
2022/04/11 01:24:20;;;;;;;3.27;1.40;;;2.90;99.90;;;;;;4899055;29;20506;-58
2022/04/11 01:26:51;;;;;;;3.83;1.70;;;2.90;99.90;;;;;;4895959;29;20913;-59
2022/04/11 01:29:21;;;;;;;9.43;1.60;;;3.00;99.90;;;;;;4896175;29;20489;-58
2022/04/11 01:31:49;;;;;;;3.47;1.60;;;3.10;99.90;;;;;;4902477;29;20478;-60
2022/04/11 01:34:17;;;;;;;3.97;1.67;;;3.20;99.90;;;;;;4897007;29;20482;-59
2022/04/11 01:36:46;;;;;;;5.87;1.90;;;3.10;99.90;;;;;;4895816;29;20498;-59
2022/04/11 01:39:15;;;;;;;2.73;1.60;;;3.00;99.90;;;;;;4897266;29;20479;-59
2022/04/11 01:41:43;;;;;;;5.33;1.63;;;3.00;99.90;;;;;;4902587;29;21753;-59
2022/04/11 01:44:12;;;;;;;4.73;1.70;;;3.10;99.90;;;;;;4906937;29;20482;-58
2022/04/11 01:46:42;;;;;;;4.13;1.57;;;3.00;99.90;;;;;;4900948;29;20483;-58
2022/04/11 01:49:15;;;;;;;5.50;1.57;;;3.00;99.90;;;;;;4895837;29;20480;-59
2022/04/11 01:51:43;;;;;;;3.53;1.73;;;3.00;99.90;;;;;;4899884;29;20504;-59
2022/04/11 01:54:11;;;;;;;5.03;1.50;;;3.00;99.90;;;;;;4896994;29;20475;-58
2022/04/11 01:56:41;;;;;;;2.33;1.70;;;2.90;99.90;;;;;;4896641;29;20582;-59
2022/04/11 01:59:09;;;;;;;4.67;1.83;;;2.80;99.90;;;;;;4895496;29;20474;-57
2022/04/11 02:01:37;;;;;;;4.50;1.50;;;2.70;99.90;;;;;;4896524;29;20479;-59
2022/04/11 02:04:05;;;;;;;4.00;1.50;;;2.70;99.90;;;;;;4895575;29;20482;-58
2022/04/11 02:06:33;;;;;;;2.23;1.37;;;2.80;99.90;;;;;;4895601;29;20477;-59
2022/04/11 02:09:02;;;;;;;2.37;1.47;;;2.80;99.90;;;;;;4897168;29;20857;-59
2022/04/11 02:11:30;;;;;;;5.17;2.17;;;2.90;99.90;;;;;;4896603;29;20480;-58
2022/04/11 02:14:00;;;;;;;6.10;1.60;;;3.00;99.90;;;;;;4902971;29;20471;-59
2022/04/11 02:16:28;;;;;;;6.00;1.73;;;2.90;99.90;;;;;;4896017;29;20546;-59
2022/04/11 02:18:57;;;;;;;6.80;1.77;;;2.90;99.90;;;;;;4896692;29;20872;-59
2022/04/11 02:21:25;;;;;;;4.23;1.70;;;3.00;99.90;;;;;;4900030;29;20482;-59
2022/04/11 02:23:53;;;;;;;3.23;1.53;;;2.90;99.90;;;;;;4902008;29;20509;-59
2022/04/11 02:26:21;;;;;;;5.13;1.80;;;2.80;99.90;;;;;;4896260;29;20493;-58
2022/04/11 02:28:49;;;;;;;3.77;2.00;;;2.80;99.90;;;;;;4895143;29;20534;-58
2022/04/11 02:31:19;;;;;;;4.90;1.83;;;2.70;99.90;;;;;;4899987;29;20485;-59
2022/04/11 02:33:47;;;;;;;3.40;1.77;;;2.70;99.90;;;;;;4894672;29;20890;-58
2022/04/11 02:36:15;;;;;;;8.17;2.00;;;2.70;99.90;;;;;;4894713;29;21071;-59
2022/04/11 02:38:44;;;;;;;5.97;1.87;;;2.70;99.90;;;;;;4894761;29;20494;-59
2022/04/11 02:41:12;;;;;;;4.40;1.97;;;2.70;99.90;;;;;;4901557;29;20490;-58
2022/04/11 02:43:46;;;;;;;6.93;2.10;;;2.60;99.90;;;;;;4901362;29;20477;-59
2022/04/11 02:46:15;;;;;;;4.70;2.23;;;2.60;99.90;;;;;;4899260;29;20703;-59
2022/04/11 02:48:45;;;;;;;4.07;2.30;;;2.60;99.90;;;;;;4896022;29;21094;-58
2022/04/11 02:51:19;;;;;;;4.50;2.07;;;2.70;99.90;;;;;;4899126;29;20486;-59
2022/04/11 02:53:56;;;;;;;6.83;2.07;;;2.80;99.90;;;;;;4894892;29;20986;-59
2022/04/11 02:56:25;;;;;;;5.70;2.23;;;2.70;99.90;;;;;;4894283;29;20520;-57
2022/04/11 02:58:53;;;;;;;4.10;2.50;;;2.90;99.90;;;;;;4894767;29;20489;-58
2022/04/11 03:01:22;;;;;;;6.47;2.50;;;2.90;99.90;;;;;;4894237;29;21071;-59
2022/04/11 03:03:55;;;;;;;4.57;2.30;;;2.70;99.90;;;;;;4894489;29;20490;-59
2022/04/11 03:06:31;;;;;;;5.13;2.40;;;2.60;99.90;;;;;;4894208;29;20516;-58
2022/04/11 03:08:59;;;;;;;5.07;2.40;;;2.50;99.90;;;;;;4894633;29;20498;-59
2022/04/11 03:11:33;;;;;;;5.73;2.07;;;2.50;99.90;;;;;;4894391;29;20475;-58
2022/04/11 03:14:02;;;;;;;3.80;1.90;;;2.40;99.90;;;;;;4896791;29;20556;-59
2022/04/11 03:16:31;;;;;;;5.03;2.67;;;2.40;99.90;;;;;;4894101;29;20497;-58
2022/04/11 03:19:01;;;;;;;5.97;2.50;;;2.40;99.90;;;;;;4895618;29;20473;-59
2022/04/11 03:21:29;;;;;;;5.63;1.80;;;2.40;99.90;;;;;;4898416;29;20490;-59
2022/04/11 03:24:09;;;;;;;5.17;2.00;;;2.50;99.90;;;;;;4897673;29;20482;-59
2022/04/11 03:26:38;;;;;;;3.97;2.70;;;2.40;99.90;;;;;;4894244;29;20825;-59
2022/04/11 03:29:10;;;;;;;7.07;3.00;;;2.40;99.90;;;;;;4894198;29;20483;-59
2022/04/11 03:31:39;;;;;;;5.67;2.47;;;2.30;99.90;;;;;;4897089;29;20479;-59
2022/04/11 03:34:10;;;;;;;6.30;2.00;;;2.30;99.90;;;;;;4893990;29;20498;-58
2022/04/11 03:36:39;;;;;;;5.03;2.10;;;2.30;99.90;;;;;;4899227;29;20479;-59
2022/04/11 03:39:07;;;;;;;3.47;2.10;;;2.30;99.90;;;;;;4895461;29;20891;-59
2022/04/11 03:41:39;;;;;;;4.97;2.20;;;2.30;99.90;;;;;;4893781;29;20488;-59
2022/04/11 03:44:14;;;;;;;3.90;2.00;;;2.30;99.90;;;;;;4901704;29;20925;-58
2022/04/11 03:46:43;;;;;;;5.00;2.40;;;2.20;99.90;;;;;;4900562;29;20478;-59
2022/04/11 03:49:17;;;;;;;4.67;2.13;;;2.30;99.90;;;;;;4894092;29;20512;-59
2022/04/11 03:51:46;;;;;;;4.50;2.37;;;2.30;99.90;;;;;;4898375;29;20498;-58
2022/04/11 03:54:14;;;;;;;5.87;2.47;;;2.30;99.90;;;;;;4894013;29;20488;-58
2022/04/11 03:56:43;;;;;;;6.30;2.40;;;2.40;99.90;;;;;;4893736;29;20998;-59
2022/04/11 03:59:11;;;;;;;6.07;2.57;;;2.50;99.90;;;;;;4896639;29;20488;-58
2022/04/11 04:01:41;;;;;;;5.87;2.50;;;2.40;99.90;;;;;;4897444;29;20608;-60
2022/04/11 04:04:09;;;;;;;3.80;2.27;;;2.30;99.90;;;;;;4897879;29;20545;-57
2022/04/11 04:06:39;;;;;;;7.27;3.10;;;2.30;99.90;;;;;;4902574;29;20497;-59
2022/04/11 04:09:09;;;;;;;2.97;2.20;;;2.20;99.90;;;;;;4897581;29;20510;-58
2022/04/11 04:11:38;;;;;;;8.77;3.20;;;2.50;99.90;;;;;;4897392;29;20485;-59
2022/04/11 04:14:24;;;;;;;2.93;2.30;;;2.40;99.90;;;;;;4906460;29;20641;-59
2022/04/11 04:16:55;;;;;;;4.87;3.00;;;2.30;99.90;;;;;;4902750;29;20493;-59
2022/04/11 04:19:33;;;;;;;5.23;3.03;;;2.20;99.90;;;;;;4896626;29;20471;-58
2022/04/11 04:22:10;;;;;;;7.87;4.27;;;2.20;99.90;;;;;;4905796;29;20503;-59
2022/04/11 04:24:38;;;;;;;10.77;5.90;;;2.20;99.90;;;;;;4879463;29;20475;-58
2022/04/11 04:27:07;;;;;;;10.63;6.77;;;2.20;99.90;;;;;;4898718;29;20501;-59
2022/04/11 04:29:38;;;;;;;11.20;7.53;;;2.10;99.90;;;;;;4883159;29;20989;-59
2022/04/11 04:32:07;;;;;;;10.13;6.63;;;2.10;99.90;;;;;;4897195;29;20516;-59
2022/04/11 04:34:37;;;;;;;11.73;6.60;;;2.10;99.90;;;;;;4896934;29;20489;-59
2022/04/11 04:37:08;;;;;;;12.43;6.23;;;2.10;99.90;;;;;;4897197;29;20496;-59
2022/04/11 04:39:38;;;;;;;9.93;5.73;;;2.10;99.90;;;;;;4896935;29;20481;-59
2022/04/11 04:42:09;;;;;;;9.87;5.73;;;2.20;99.90;;;;;;4901904;29;21014;-57
2022/04/11 04:44:40;;;;;;;7.67;5.07;;;2.20;99.90;;;;;;4904394;29;21079;-59
2022/04/11 04:47:12;;;;;;;8.10;5.00;;;2.20;99.90;;;;;;4896915;29;20481;-58
2022/04/11 04:49:42;;;;;;;8.57;4.40;;;2.20;99.90;;;;;;4894515;29;20515;-59
2022/04/11 04:52:12;;;;;;;5.53;4.00;;;2.30;99.90;;;;;;4901383;29;20529;-58
2022/04/11 04:54:56;;;;;;;4.90;3.67;;;2.30;99.90;;;;;;4897120;29;20483;-58
2022/04/11 04:57:24;;;;;;;8.10;4.10;;;2.50;99.90;;;;;;4896706;29;20886;-59
2022/04/11 04:59:52;;;;;;;5.87;4.07;;;2.40;99.90;;;;;;4896760;29;20484;-59
2022/04/11 05:02:35;;;;;;;7.47;4.50;;;2.40;99.90;;;;;;4896436;29;20482;-58
2022/04/11 05:05:06;;;;;;;8.37;4.33;;;2.40;99.90;;;;;;4896950;29;20837;-59
2022/04/11 05:07:34;;;;;;;8.77;4.40;;;2.40;99.90;;;;;;4898108;29;20979;-58
2022/04/11 05:10:11;;;;;;;6.20;3.37;;;2.50;99.90;;;;;;4895522;29;20480;-59
2022/04/11 05:12:41;;;;;;;5.87;4.00;;;2.80;99.90;;;;;;4895784;29;20516;-59
2022/04/11 05:15:10;;;;;;;8.27;4.13;;;3.00;99.90;;;;;;4896449;29;20894;-58
2022/04/11 05:17:39;;;;;;;6.47;3.73;;;3.10;99.90;;;;;;4896249;29;20563;-58
2022/04/11 05:20:09;;;;;;;9.63;4.17;;;3.00;99.90;;;;;;4900206;29;20903;-59
2022/04/11 05:22:39;;;;;;;4.97;3.50;;;3.10;99.90;;;;;;4901795;29;20538;-58
2022/04/11 05:25:08;;;;;;;6.63;3.87;;;3.30;99.90;;;;;;4901210;29;20571;-58
2022/04/11 05:27:38;;;;;;;7.00;3.40;;;3.50;99.90;;;;;;4896081;29;20492;-59
2022/04/11 05:30:07;;;;;;;8.40;3.87;;;3.50;99.90;;;;;;4900680;29;20561;-58
2022/04/11 05:32:37;;;;;;;4.10;3.07;;;3.60;99.90;;;;;;4895791;29;20481;-59
2022/04/11 05:35:06;;;;;;;7.17;3.30;;;3.70;99.90;;;;;;4897737;29;20493;-59
2022/04/11 05:37:35;;;;;;;4.80;3.53;;;3.90;99.90;;;;;;4895922;29;20483;-59
2022/04/11 05:40:05;;;;;;;8.17;4.03;;;4.00;99.90;;;;;;4896329;29;20477;-59
2022/04/11 05:42:34;;;;;;;7.30;3.53;;;4.10;99.90;;;;;;4895786;29;20837;-59
2022/04/11 05:45:05;;;;;;;5.73;3.20;;;4.00;99.90;;;;;;4896047;29;20470;-59
2022/04/11 05:47:34;;;;;;;6.03;3.60;;;4.20;99.90;;;;;;4895785;29;20488;-58
2022/04/11 05:50:02;;;;;;;6.80;3.53;;;4.30;99.90;;;;;;4899933;29;20470;-59
2022/04/11 05:52:30;;;;;;;5.80;3.30;;;4.50;99.90;;;;;;4897805;29;20480;-59
2022/04/11 05:54:58;;;;;;;7.70;3.80;;;4.40;99.90;;;;;;4895970;29;20825;-59
2022/04/11 05:57:27;;;;;;;5.50;3.60;;;4.50;99.90;;;;;;4895384;29;20873;-58
2022/04/11 05:59:55;;;;;;;4.93;3.47;;;4.60;99.90;;;;;;4895568;29;20555;-59
2022/04/11 06:02:25;;;;;;;6.20;3.57;;;4.60;99.90;;;;;;4896928;29;20487;-59
2022/04/11 06:04:53;;;;;;;6.90;3.33;;;4.60;99.90;;;;;;4895539;29;20488;-59
2022/04/11 06:07:23;;;;;;;5.60;3.30;;;4.70;99.90;;;;;;4896844;29;20524;-59
2022/04/11 06:09:51;;;;;;;5.60;3.30;;;4.70;99.90;;;;;;4899639;29;20514;-58
2022/04/11 06:12:20;;;;;;;7.97;3.77;;;4.70;99.90;;;;;;4899020;29;20487;-59
2022/04/11 06:14:53;;;;;;;14.23;3.70;;;4.80;99.90;;;;;;4895581;29;20284;-59
2022/04/11 06:17:23;;;;;;;6.90;3.53;;;4.80;99.90;;;;;;4895287;29;20555;-59
2022/04/11 06:19:53;;;;;;;6.23;3.57;;;4.90;99.90;;;;;;4896689;29;20496;-59
2022/04/11 06:22:22;;;;;;;6.63;3.57;;;5.10;99.90;;;;;;4899847;29;20511;-59
2022/04/11 06:24:59;;;;;;;6.10;3.47;;;5.20;99.90;;;;;;4898035;29;20521;-58
2022/04/11 06:27:28;;;;;;;6.73;3.70;;;5.40;99.90;;;;;;4896122;29;20481;-59
2022/04/11 06:29:57;;;;;;;9.97;3.90;;;5.40;99.90;;;;;;4898594;29;20832;-58
2022/04/11 06:32:27;;;;;;;5.90;3.80;;;5.50;99.90;;;;;;4895950;29;20891;-59
2022/04/11 06:34:58;;;;;;;7.27;3.53;;;5.60;99.90;;;;;;4898393;29;20528;-58
2022/04/11 06:37:27;;;;;;;7.33;3.23;;;5.80;99.90;;;;;;4896194;29;20477;-58
2022/04/11 06:39:59;;;;;;;6.23;3.50;;;5.90;99.90;;;;;;4898650;29;20509;-58
2022/04/11 06:42:27;;;;;;;8.13;3.57;;;6.20;99.90;;;;;;4901526;29;20562;-59
2022/04/11 06:44:56;;;;;;;5.57;3.47;;;6.30;99.90;;;;;;4898183;29;20519;-59
2022/04/11 06:47:28;;;;;;;6.27;3.67;;;6.50;99.90;;;;;;4895546;29;20560;-59
2022/04/11 06:49:58;;;;;;;6.77;3.37;;;6.90;99.90;;;;;;4898553;29;20260;-59
2022/04/11 06:52:26;;;;;;;6.33;3.37;;;7.00;99.90;;;;;;4897159;29;20975;-59
2022/04/11 06:54:55;;;;;;;5.73;2.90;;;7.20;99.90;;;;;;4899232;29;20244;-57
2022/04/11 06:57:24;;;;;;;7.47;3.20;;;7.30;99.90;;;;;;4897659;29;20244;-59
2022/04/11 06:59:52;;;;;;;4.80;3.30;;;7.50;99.90;;;;;;4895839;29;20721;-59
2022/04/11 07:02:21;;;;;;;5.07;2.97;;;7.60;99.90;;;;;;4895690;29;20248;-58
2022/04/11 07:04:49;;;;;;;4.87;2.90;;;7.80;99.90;;;;;;4895799;29;20579;-58
2022/04/11 07:07:19;;;;;;;4.07;2.60;;;7.80;99.90;;;;;;4895704;29;20241;-58
2022/04/11 07:09:47;;;;;;;4.50;2.57;;;8.00;99.90;;;;;;4895852;29;20245;-58
2022/04/11 07:12:15;;;;;;;3.87;2.40;;;8.20;99.90;;;;;;4895571;29;20241;-58
2022/04/11 07:14:43;;;;;;;6.90;2.90;;;8.40;99.90;;;;;;4895614;29;20581;-58
2022/04/11 07:17:12;;;;;;;4.60;2.60;;;8.60;99.90;;;;;;4895379;29;20275;-58
2022/04/11 07:19:39;;;;;;;7.07;3.30;;;8.70;99.90;;;;;;4885770;29;20248;-59
2022/04/11 07:22:08;;;;;;;5.63;3.00;;;9.10;99.90;;;;;;4903431;29;20244;-59
2022/04/11 07:24:38;;;;;;;4.67;2.63;;;9.50;99.90;;;;;;4895957;29;20241;-57
2022/04/11 07:27:07;;;;;;;5.43;3.03;;;9.80;99.90;;;;;;4895718;29;20331;-58
2022/04/11 07:29:35;;;;;;;4.20;2.53;;;9.90;99.90;;;;;;4895846;29;20777;-58
2022/04/11 07:32:05;;;;;;;7.17;2.60;;;10.10;99.90;;;;;;4899961;29;20328;-58
2022/04/11 07:34:33;;;;;;;6.13;2.83;;;10.40;99.90;;;;;;4895158;29;20328;-58
2022/04/11 07:37:01;;;;;;;5.47;2.47;;;10.70;99.90;;;;;;4895549;29;20241;-59
2022/04/11 07:39:30;;;;;;;4.93;2.30;;;10.80;99.90;;;;;;4895560;29;20289;-58
2022/04/11 07:42:00;;;;;;;4.33;2.70;;;10.90;99.90;;;;;;4890597;29;20312;-58
2022/04/11 07:44:28;;;;;;;6.13;2.30;;;10.80;99.90;;;;;;4895477;29;20337;-58
2022/04/11 07:46:56;;;;;;;3.90;2.53;;;10.90;99.90;;;;;;4895387;29;20260;-58
2022/04/11 07:49:24;;;;;;;6.80;2.40;;;11.10;99.90;;;;;;4895473;29;20239;-58
2022/04/11 07:51:53;;;;;;;5.73;2.20;;;11.20;99.90;;;;;;4899784;29;20245;-58
2022/04/11 07:54:21;;;;;;;7.67;2.60;;;10.90;99.90;;;;;;4895617;29;20237;-58
2022/04/11 07:56:49;;;;;;;3.97;2.33;;;10.80;99.90;;;;;;4895278;29;20287;-58
2022/04/11 07:59:18;;;;;;;4.20;2.30;;;11.10;99.90;;;;;;4895253;29;20248;-58
2022/04/11 08:01:46;;;;;;;4.83;2.60;;;11.50;99.90;;;;;;4897351;29;20245;-58
2022/04/11 08:04:14;;;;;;;6.10;2.33;;;11.70;99.90;;;;;;4898225;29;20245;-59
2022/04/11 08:06:42;;;;;;;3.97;2.17;;;11.40;99.90;;;;;;4900549;29;20242;-59
2022/04/11 08:09:11;;;;;;;5.40;2.30;;;11.80;99.90;;;;;;4895443;29;20289;-59
2022/04/11 08:11:39;;;;;;;3.53;2.10;;;12.00;99.90;;;;;;4900239;29;20233;-58
2022/04/11 08:14:07;;;;;;;4.73;2.10;;;12.40;99.90;;;;;;4895173;29;20294;-59
2022/04/11 08:16:36;;;;;;;4.70;1.93;;;12.60;99.90;;;;;;4895176;29;20241;-59
2022/04/11 08:19:05;;;;;;;6.70;2.10;;;12.50;99.90;;;;;;4895436;29;20691;-59
2022/04/11 08:21:33;;;;;;;4.57;2.13;;;12.30;99.90;;;;;;4900451;29;20283;-60
2022/04/11 08:24:01;;;;;;;3.47;1.70;;;12.40;99.90;;;;;;4900223;29;20258;-58
2022/04/11 08:26:29;;;;;;;3.57;1.73;;;12.80;99.90;;;;;;4894932;29;20246;-58
2022/04/11 08:28:58;;;;;;;3.77;1.90;;;13.20;99.90;;;;;;4895125;29;20324;-59
2022/04/11 08:31:26;;;;;;;4.47;1.80;;;13.60;99.90;;;;;;4893101;29;20239;-58
2022/04/11 08:33:55;;;;;;;3.33;1.80;;;13.50;99.90;;;;;;4895112;29;20267;-59
2022/04/11 08:36:24;;;;;;;4.00;1.67;;;13.60;99.90;;;;;;4894942;29;20245;-59
2022/04/11 08:38:53;;;;;;;5.20;1.73;;;13.70;99.90;;;;;;4895158;29;20296;-59
2022/04/11 08:41:21;;;;;;;4.73;1.60;;;13.80;99.90;;;;;;4894821;29;20243;-59
2022/04/11 08:43:49;;;;;;;4.37;1.50;;;14.10;99.90;;;;;;4900507;29;20716;-58
2022/04/11 08:46:18;;;;;;;3.03;1.40;;;14.30;99.90;;;;;;4897741;29;20719;-59
2022/04/11 08:48:46;;;;;;;3.67;1.47;;;14.40;99.90;;;;;;4898427;29;20624;-59
2022/04/11 08:51:16;;;;;;;3.33;1.43;;;14.70;99.90;;;;;;4902580;29;20254;-58
2022/04/11 08:53:44;;;;;;;3.97;1.40;;;14.60;99.90;;;;;;4898240;29;20256;-58
2022/04/11 08:56:12;;;;;;;4.07;1.10;;;14.60;99.90;;;;;;4903348;29;20585;-58
2022/04/11 08:58:41;;;;;;;3.97;1.20;;;14.80;99.90;;;;;;4897837;29;20244;-57
2022/04/11 09:01:09;;;;;;;2.67;1.40;;;14.80;99.90;;;;;;4897597;29;20356;-58
2022/04/11 09:03:37;;;;;;;2.87;1.23;;;15.00;99.90;;;;;;4903414;29;20240;-59
2022/04/11 09:06:08;;;;;;;4.43;1.37;;;15.10;99.90;;;;;;4897935;29;20243;-58
2022/04/11 09:08:43;;;;;;;3.70;1.20;;;15.20;99.90;;;;;;4897738;29;20279;-58
2022/04/11 09:11:11;;;;;;;4.93;1.40;;;14.80;99.90;;;;;;4897854;29;20237;-59
2022/04/11 09:13:50;;;;;;;2.83;1.23;;;13.90;99.90;;;;;;4890330;29;20252;-58
2022/04/11 09:16:19;;;;;;;2.43;1.00;;;13.80;99.90;;;;;;4897634;29;20240;-59
2022/04/11 09:18:48;;;;;;;1.97;1.17;;;14.10;99.90;;;;;;4897558;29;20331;-58
2022/04/11 09:21:18;;;;;;;2.77;1.00;;;13.80;99.90;;;;;;4901349;29;20264;-58
2022/04/11 09:23:48;;;;;;;3.33;1.00;;;13.60;99.90;;;;;;4903140;29;20666;-59
2022/04/11 09:26:17;;;;;;;3.67;1.20;;;13.40;99.90;;;;;;4897674;29;20246;-59
2022/04/11 09:28:58;;;;;;;2.97;1.40;;;14.00;99.90;;;;;;4897756;29;20946;-58
2022/04/11 09:31:26;;;;;;;2.60;1.10;;;14.70;99.90;;;;;;4901107;29;20713;-57
2022/04/11 09:33:55;;;;;;;3.10;1.10;;;15.30;99.90;;;;;;4897451;29;20323;-58
2022/04/11 09:36:45;;;;;;;3.70;1.23;;;15.70;99.90;;;;;;4897193;29;20288;-59
2022/04/11 09:39:30;;;;;;;3.43;1.20;;;15.90;99.90;;;;;;4897177;29;20312;-59
2022/04/11 09:42:04;;;;;;;4.33;1.40;;;15.80;99.90;;;;;;4906264;29;20246;-58
2022/04/11 09:44:34;;;;;;;2.47;1.30;;;16.10;99.90;;;;;;4898064;29;20304;-59
2022/04/11 09:47:25;;;;;;;1.50;1.07;;;16.20;99.90;;;;;;4898512;29;20237;-58
2022/04/11 09:49:53;;;;;;;2.63;1.20;;;16.40;99.90;;;;;;4899429;29;20250;-59
2022/04/11 09:52:28;;;;;;;5.17;1.47;;;16.80;99.90;;;;;;4899135;29;21150;-58
2022/04/11 09:54:59;;;;;;;2.43;1.07;;;16.20;99.90;;;;;;4900571;29;20243;-58
2022/04/11 09:57:31;;;;;;;4.20;1.20;;;15.30;99.90;;;;;;4897848;29;20233;-59
2022/04/11 10:00:04;;;;;;;5.60;1.27;;;14.80;99.90;;;;;;4896995;29;20693;-58
2022/04/11 10:02:39;;;;;;;2.97;1.30;;;14.60;99.90;;;;;;4902235;29;20240;-58
2022/04/11 10:05:08;;;;;;;3.20;1.30;;;15.00;99.90;;;;;;4896966;29;20282;-58
2022/04/11 10:07:37;;;;;;;4.07;1.20;;;15.30;99.90;;;;;;4896847;29;20252;-60
2022/04/11 10:10:08;;;;;;;1.53;1.00;;;15.70;99.90;;;;;;4897040;29;20644;-59
2022/04/11 10:12:36;;;;;;;2.17;1.03;;;16.10;99.90;;;;;;4896343;29;20229;-59
2022/04/11 10:15:05;;;;;;;3.10;1.10;;;16.70;99.90;;;;;;4901168;29;20228;-58
2022/04/11 10:17:33;;;;;;;3.10;1.10;;;17.10;99.90;;;;;;4897044;29;20237;-58
2022/04/11 10:20:02;;;;;;;3.00;1.00;;;17.20;99.90;;;;;;4905201;29;20301;-58
2022/04/11 10:22:38;;;;;;;2.20;1.10;;;17.30;99.90;;;;;;4902677;29;20236;-59
2022/04/11 10:25:08;;;;;;;3.10;1.40;;;17.80;99.90;;;;;;4900790;29;20291;-60
2022/04/11 10:27:38;;;;;;;3.30;1.20;;;17.80;99.90;;;;;;4896364;29;20229;-58
2022/04/11 10:30:27;;;;;;;1.70;1.03;;;17.40;99.90;;;;;;4896485;29;20241;-58
2022/04/11 10:32:56;;;;;;;4.80;1.47;;;16.60;99.90;;;;;;4889413;29;20248;-58
2022/04/11 10:35:38;;;;;;;3.57;1.20;;;16.10;99.90;;;;;;4895754;29;20259;-59
2022/04/11 10:38:07;;;;;;;4.73;1.47;;;16.40;99.90;;;;;;4896243;29;20324;-59
2022/04/11 10:40:38;;;;;;;4.37;1.40;;;16.40;99.90;;;;;;4896049;29;20713;-57
2022/04/11 10:43:26;;;;;;;2.27;1.33;;;15.90;99.90;;;;;;4895898;29;20698;-59
2022/04/11 10:45:58;;;;;;;2.00;1.37;;;16.00;99.90;;;;;;4896289;29;20248;-59
2022/04/11 10:48:58;;;;;;;2.87;1.40;;;15.60;99.90;;;;;;4895920;29;20593;-59
2022/04/11 10:51:26;;;;;;;3.67;1.40;;;16.00;99.90;;;;;;4900804;29;20259;-59
2022/04/11 10:54:17;;;;;;;2.83;1.30;;;16.60;99.90;;;;;;4896072;29;20726;-59
2022/04/11 10:57:07;;;;;;;2.43;1.53;;;17.40;99.90;;;;;;4891797;29;20237;-59
2022/04/11 11:00:05;;;;;;;2.57;1.40;;;17.90;99.90;;;;;;4897062;29;20241;-58
2022/04/11 11:03:06;;;;;;;3.03;1.50;;;18.00;99.90;;;;;;4901372;29;20379;-59
2022/04/11 11:05:36;;;;;;;3.33;1.63;;;18.10;99.90;;;;;;4900841;29;20237;-59
2022/04/11 11:08:43;;;;;;;4.17;1.40;;;18.70;99.90;;;;;;4895432;29;20587;-58
2022/04/11 11:11:27;;;;;;;2.50;1.50;;;18.20;98.70;;;;;;4895526;29;20667;-59
2022/04/11 11:13:58;;;;;;;3.03;1.50;;;18.10;99.90;;;;;;4896028;29;20329;-59
2022/04/11 11:16:37;;;;;;;3.30;1.60;;;18.50;99.90;;;;;;4895131;29;20675;-59
2022/04/11 11:19:20;;;;;;;3.80;1.60;;;18.20;98.00;;;;;;4893306;29;20324;-59
2022/04/11 11:22:08;;;;;;;4.20;1.57;;;17.60;99.80;;;;;;4902256;29;20741;-59
2022/04/11 11:24:36;;;;;;;3.47;1.50;;;17.80;99.90;;;;;;4895963;29;20269;-58
2022/04/11 11:27:06;;;;;;;3.30;1.93;;;17.30;99.90;;;;;;4900313;29;20246;-58
2022/04/11 11:29:44;;;;;;;2.43;1.30;;;16.50;99.20;;;;;;4896873;29;20237;-58
2022/04/11 11:32:14;;;;;;;2.47;1.50;;;16.00;99.50;;;;;;4895260;29;20245;-59
2022/04/11 11:34:43;;;;;;;3.37;1.43;;;16.60;99.90;;;;;;4878144;29;20242;-59
2022/04/11 11:37:12;;;;;;;2.30;1.30;;;17.20;99.90;;;;;;4895812;29;20252;-59
2022/04/11 11:39:43;;;;;;;2.57;1.37;;;17.90;99.90;;;;;;4895533;29;20252;-59
2022/04/11 11:42:15;;;;;;;2.43;1.30;;;18.40;99.90;;;;;;4895416;29;20237;-59
2022/04/11 11:44:47;;;;;;;3.57;1.60;;;18.30;97.80;;;;;;4895709;29;20955;-59
2022/04/11 11:47:16;;;;;;;1.83;1.30;;;17.70;99.10;;;;;;4893824;29;20265;-59
2022/04/11 11:49:46;;;;;;;3.20;1.50;;;17.90;99.90;;;;;;4897024;29;20328;-59
2022/04/11 11:52:15;;;;;;;2.53;1.20;;;17.60;99.90;;;;;;4898423;29;20249;-59
2022/04/11 11:54:45;;;;;;;3.33;1.40;;;18.00;98.70;;;;;;4896930;29;20272;-59
2022/04/11 11:57:15;;;;;;;1.47;1.13;;;17.90;98.80;;;;;;4898703;29;20242;-58
2022/04/11 11:59:53;;;;;;;2.90;1.40;;;17.80;99.90;;;;;;4897460;29;20241;-58
2022/04/11 12:05:21;;;;;;;4.33;1.30;;;17.00;99.90;;;;;;4899897;29;20241;-59
2022/04/11 12:07:50;;;;;;;2.00;1.40;;;17.20;99.90;;;;;;4894992;29;20702;-59
2022/04/11 12:10:19;;;;;;;2.40;1.23;;;17.30;99.90;;;;;;4900418;29;20240;-59
2022/04/11 12:12:48;;;;;;;3.97;1.50;;;17.10;99.90;;;;;;4895234;29;20242;-59
2022/04/11 12:15:18;;;;;;;4.10;1.87;;;16.50;99.10;;;;;;4895170;29;20242;-59
2022/04/11 12:17:49;;;;;;;3.77;1.30;;;16.40;99.90;;;;;;4895171;29;20249;-59
2022/04/11 12:20:19;;;;;;;2.50;1.50;;;16.60;99.90;;;;;;4902280;29;20331;-59
2022/04/11 12:23:05;;;;;;;2.93;1.47;;;16.20;99.90;;;;;;4904007;29;20243;-59
2022/04/11 12:25:35;;;;;;;2.53;1.60;;;16.10;99.90;;;;;;4898817;29;20237;-59
2022/04/11 12:28:11;;;;;;;2.33;1.53;;;15.90;99.90;;;;;;4898916;29;20683;-59
2022/04/11 12:30:44;;;;;;;2.93;1.73;;;15.70;99.90;;;;;;4899660;29;20245;-59
2022/04/11 12:33:35;;;;;;;3.77;2.00;;;15.80;99.90;;;;;;4898578;29;20361;-59
2022/04/11 12:36:12;;;;;;;3.40;1.53;;;16.10;99.90;;;;;;4898693;29;20242;-59
2022/04/11 12:38:42;;;;;;;3.17;1.70;;;16.10;99.90;;;;;;4898168;29;20252;-59
2022/04/11 12:41:33;;;;;;;3.57;1.73;;;15.90;99.90;;;;;;4898700;29;20608;-59
2022/04/11 12:44:10;;;;;;;3.90;1.80;;;15.90;99.90;;;;;;4894175;29;20642;-58
2022/04/11 12:46:43;;;;;;;2.53;1.50;;;15.50;99.90;;;;;;4897699;29;20249;-59
2022/04/11 12:49:13;;;;;;;1.93;1.50;;;15.40;99.90;;;;;;4898467;29;20245;-59
2022/04/11 12:51:41;;;;;;;2.87;1.70;;;15.60;99.90;;;;;;4902371;29;20252;-59
2022/04/11 12:54:12;;;;;;;3.73;1.83;;;15.50;99.90;;;;;;4898286;29;20246;-59
2022/04/11 12:56:44;;;;;;;4.03;2.17;;;15.70;99.90;;;;;;4903360;29;20274;-59
2022/04/11 12:59:26;;;;;;;4.63;1.50;;;15.70;99.90;;;;;;4899191;29;20341;-58
2022/04/11 13:01:58;;;;;;;3.37;1.50;;;15.60;99.90;;;;;;4897439;29;20240;-59
2022/04/11 13:04:27;;;;;;;4.23;1.67;;;15.50;99.90;;;;;;4897996;29;20324;-58
2022/04/11 13:06:55;;;;;;;3.67;1.70;;;15.40;99.90;;;;;;4897671;29;20706;-59
2022/04/11 13:09:25;;;;;;;2.07;1.33;;;15.20;99.90;;;;;;4897910;29;20285;-59
2022/04/11 13:11:55;;;;;;;3.57;1.23;;;14.90;99.90;;;;;;4897805;29;20244;-59
2022/04/11 13:14:33;;;;;;;2.70;1.63;;;14.90;99.90;;;;;;4897853;29;20761;-58
2022/04/11 13:19:48;;;;;;;2.33;1.13;;;14.20;99.90;;;;;;4889800;29;20280;-59